KSBP/SBP METAR and TAF weather

Enter ICAO airport designator
Station Type Date Time Source
KSBP METAR 2019/10/15 20:56 UTC NOAA

KSBP 152056Z 31008KT 10SM CLR 24/09 A2999 RMK AO2 SLP153 T02440089 58022


Station Type Date Time Source
KSBP Decoded METAR 2019/10/15 20:56 UTC NOAA

SAN LUIS OBISPO MC CHESNEY, CA, United States (KSBP) 35-14N 120-38W 59M
Oct 15, 2019 - 04:56 PM EDT / 2019.10.15 2056 UTC
Wind: from the NW (310 degrees) at 9 MPH (8 KT):0
Visibility: 10 mile(s):0
Sky conditions: clear
Temperature: 75.9 F (24.4 C)
Dew Point: 48.0 F (8.9 C)
Relative Humidity: 37%
Pressure (altimeter): 29.99 in. Hg (1015 hPa)
Pressure tendency: 0.06 inches (2.2 hPa) lower than three hours ago
ob: KSBP 152056Z 31008KT 10SM CLR 24/09 A2999 RMK AO2 SLP153 T02440089 58022
cycle: 21

Station Type Date Time Source
KSBP TAF 2019/10/15 20:46 UTC NOAA

TAF
AMD KSBP 151944Z 1520/1618 30013KT P6SM SKC
FM160400 VRB03KT 4SM BR OVC004
FM161000 VRB03KT 1/4SM FG VV002
FM161500 VRB03KT 3SM BR OVC003

Example: see airport list